Weather at Roswell Air Center Airport

Public forecast

Using degrees Fahrenheit for public forecast. Weather courtesy of forecast.io.

Current aviation weather report (METAR) for Roswell Air Center Airport

Retrieved 2022/01/29 13:51 UTC (25 minutes ago):

KROW 291351Z 00000KT 10SM CLR M07/M14 A3035 RMK AO2 SLP287 T10721139

Aviation forecast (TAF) for Roswell Air Center Airport

Retrieved 2022/01/29 12:27 UTC (2 hours ago):

TAF KROW 291125Z 2912/3012 VRB06KT P6SM FEW250 FM291900 17012KT P6SM SCT250 FM300100 24006KT P6SM SCT250